Time;durP1;ratioP1;P1;durP2;ratioP2;P2;SDS_P1;SDS_P2;PMS_P1;PMS_P2;Temp;Humidity;BMP_temperature;BMP_pressure;BME280_temperature;BME280_humidity;BME280_pressure;Samples;Min_cycle;Max_cycle;Signal;HPM_P1;HPM_P2
2022/01/06 00:00:11;;;;;;;20.20;3.55;;;;;;;-144.19;100.00;77486.75;5052835;28;20049;-89
2022/01/06 00:02:37;;;;;;;17.60;3.45;;;;;;;-144.19;100.00;77472.97;5035110;28;20319;-90
2022/01/06 00:05:05;;;;;;;21.25;3.33;;;;;;;-144.19;100.00;77465.09;5052542;28;20088;-89
2022/01/06 00:07:32;;;;;;;16.10;4.18;;;;;;;-144.19;100.00;77494.63;5035049;28;20056;-89
2022/01/06 00:09:59;;;;;;;12.73;2.83;;;;;;;-144.19;100.00;77500.53;5034577;28;20041;-89
2022/01/06 00:12:36;;;;;;;15.18;3.38;;;;;;;-144.19;100.00;77508.41;5052394;28;20076;-89
2022/01/06 00:15:33;;;;;;;12.13;2.53;;;;;;;-144.19;100.00;77508.41;5015808;28;20053;-88
2022/01/06 00:23:38;;;;;;;17.23;2.83;;;;;;;-144.19;100.00;77512.34;5033503;28;20136;-90
2022/01/06 00:26:06;;;;;;;11.82;3.35;;;;;;;-144.19;100.00;77520.22;5031077;28;20055;-90
2022/01/06 00:28:33;;;;;;;25.88;3.20;;;;;;;-144.19;100.00;77532.03;5035705;28;20431;-89
2022/01/06 00:31:01;;;;;;;12.15;2.78;;;;;;;-144.19;100.00;77551.72;5034614;28;20049;-90
2022/01/06 00:33:31;;;;;;;15.60;2.47;;;;;;;-144.19;100.00;77535.97;5035086;28;20059;-91
2022/01/06 00:35:57;;;;;;;18.90;2.85;;;;;;;-144.19;100.00;77528.09;5035353;28;20072;-90
2022/01/06 00:38:25;;;;;;;13.63;2.70;;;;;;;-144.19;100.00;77563.56;5034083;28;20474;-89
2022/01/06 00:40:53;;;;;;;25.33;3.33;;;;;;;-144.19;100.00;77559.63;5052218;28;20048;-90
2022/01/06 00:43:19;;;;;;;13.55;2.70;;;;;;;-144.19;100.00;77557.63;5033882;28;20052;-89
2022/01/06 00:45:46;;;;;;;15.07;2.90;;;;;;;-144.19;100.00;77551.72;5035006;28;20477;-90
2022/01/06 00:48:12;;;;;;;16.98;3.00;;;;;;;-144.19;100.00;77579.31;5034607;28;20060;-89
2022/01/06 00:50:40;;;;;;;12.23;2.27;;;;;;;-144.19;100.00;77591.13;5036388;28;20052;-88
2022/01/06 00:53:07;;;;;;;13.82;2.28;;;;;;;-144.19;100.00;77600.97;5037747;28;20232;-88
2022/01/06 00:55:35;;;;;;;8.52;1.73;;;;;;;-144.19;100.00;77614.75;5052229;28;20059;-89
2022/01/06 00:58:03;;;;;;;10.90;2.17;;;;;;;-144.19;100.00;77602.94;5052091;28;20132;-88
2022/01/06 01:00:40;;;;;;;8.48;1.63;;;;;;;-144.19;100.00;77616.72;5034480;28;20431;-89
2022/01/06 01:03:16;;;;;;;8.35;1.75;;;;;;;-144.19;100.00;77622.63;5034090;28;20433;-90
2022/01/06 01:05:45;;;;;;;12.63;2.78;;;;;;;-144.19;100.00;77642.31;5034128;28;20049;-89
2022/01/06 01:08:12;;;;;;;11.20;1.23;;;;;;;-144.19;100.00;77650.19;5034333;28;20048;-89
2022/01/06 01:10:39;;;;;;;11.95;1.77;;;;;;;-144.19;100.00;77634.44;5033585;28;20521;-89
2022/01/06 01:13:12;;;;;;;8.02;1.50;;;;;;;-144.19;100.00;77656.09;5050927;28;20049;-90
2022/01/06 01:15:50;;;;;;;6.55;1.50;;;;;;;-144.19;100.00;77650.19;5033677;28;20052;-90
2022/01/06 01:18:19;;;;;;;7.13;1.73;;;;;;;-144.19;100.00;77665.94;5032910;28;20049;-90
2022/01/06 01:20:50;;;;;;;6.90;1.40;;;;;;;-144.19;100.00;77660.03;5033556;28;20057;-89
2022/01/06 01:23:19;;;;;;;7.43;1.85;;;;;;;-144.19;100.00;77665.94;5032931;28;20131;-90
2022/01/06 01:25:45;;;;;;;11.05;2.65;;;;;;;-144.19;100.00;77669.88;5050268;28;20542;-90
2022/01/06 01:28:12;;;;;;;15.10;2.33;;;;;;;-144.19;100.00;77665.94;5033380;28;20075;-90
2022/01/06 01:30:54;;;;;;;12.52;2.30;;;;;;;-144.19;100.00;77630.50;5032776;28;20076;-90
2022/01/06 01:33:21;;;;;;;10.27;1.92;;;;;;;-144.19;100.00;77646.25;5050523;28;20067;-90
2022/01/06 01:35:47;;;;;;;7.85;2.42;;;;;;;-144.19;100.00;77671.84;5032427;28;20052;-90
2022/01/06 01:38:14;;;;;;;11.25;2.50;;;;;;;-144.19;100.00;77675.78;5032741;28;20064;-90
2022/01/06 01:40:40;;;;;;;10.02;2.33;;;;;;;-144.19;100.00;77695.47;5013274;28;20045;-90
2022/01/06 01:43:07;;;;;;;10.75;1.85;;;;;;;-144.19;100.00;77693.50;5018664;28;20072;-90
2022/01/06 01:45:34;;;;;;;13.13;1.83;;;;;;;-144.19;100.00;77689.56;5032660;28;20503;-90
2022/01/06 01:48:07;;;;;;;11.52;2.05;;;;;;;-144.19;100.00;77695.47;5032769;28;20079;-90
2022/01/06 01:50:34;;;;;;;11.00;2.20;;;;;;;-144.19;100.00;77707.28;5032856;28;20055;-89
2022/01/06 01:53:01;;;;;;;9.73;2.03;;;;;;;-144.19;100.00;77705.31;5032918;28;20053;-89
2022/01/06 01:55:32;;;;;;;15.55;1.83;;;;;;;-144.19;100.00;77701.38;5027603;28;20049;-89
2022/01/06 01:57:59;;;;;;;14.15;2.53;;;;;;;-144.19;100.00;77705.31;5026715;28;20057;-89
2022/01/06 02:00:29;;;;;;;12.45;2.08;;;;;;;-144.19;100.00;77736.81;5089828;23;20052;-88
2022/01/06 02:02:56;;;;;;;5.35;1.80;;;;;;;-144.19;100.00;77740.75;5076547;28;20433;-89
2022/01/06 02:05:27;;;;;;;;;;;;;;;-144.19;100.00;77762.41;5095837;28;20048;-87
2022/01/06 02:07:58;;;;;;;11.27;1.58;;;;;;;-144.19;100.00;77764.38;5076188;28;19920;-88
2022/01/06 02:10:26;;;;;;;12.73;1.80;;;;;;;-144.19;100.00;77764.38;5074999;28;20048;-87
2022/01/06 02:12:55;;;;;;;10.05;1.67;;;;;;;-144.19;100.00;77776.19;5074594;28;20052;-87
2022/01/06 02:15:22;;;;;;;14.38;1.40;;;;;;;-144.19;100.00;77772.25;5074853;28;20048;-86
2022/01/06 02:17:48;;;;;;;12.27;1.80;;;;;;;-144.19;100.00;77789.97;5075155;28;20056;-86
2022/01/06 02:20:17;;;;;;;13.80;1.95;;;;;;;-144.19;100.00;77805.72;5074872;28;20425;-88
2022/01/06 02:22:44;;;;;;;9.15;1.80;;;;;;;-144.19;100.00;77780.13;5075191;28;20445;-86
2022/01/06 02:25:21;;;;;;;;;;;;;;;-144.19;100.00;77788.00;5076235;28;20052;-88
2022/01/06 02:27:50;;;;;;;17.30;1.42;;;;;;;-144.19;100.00;77791.94;5093858;28;19924;-86
2022/01/06 02:30:17;;;;;;;9.88;2.13;;;;;;;-144.19;100.00;77788.00;5075312;28;20051;-87
2022/01/06 02:32:43;;;;;;;15.00;2.38;;;;;;;-144.19;100.00;77784.06;5093145;28;20055;-89
2022/01/06 02:35:21;;;;;;;10.18;1.80;;;;;;;-144.19;100.00;77754.53;5092595;28;20052;-86
2022/01/06 02:37:48;;;;;;;;;;;;;;;-144.19;100.00;77780.13;5075309;28;20506;-85
2022/01/06 02:40:17;;;;;;;12.35;2.25;;;;;;;-144.19;100.00;77784.06;5092668;28;19943;-87
2022/01/06 02:42:46;;;;;;;9.48;2.63;;;;;;;-144.19;100.00;77803.75;5092638;28;20417;-88
2022/01/06 02:45:14;;;;;;;11.18;2.20;;;;;;;-144.19;100.00;77821.47;5074334;28;20051;-86
2022/01/06 02:47:40;;;;;;;;;;;;;;;-144.19;100.00;77817.53;5075360;28;20417;-85
2022/01/06 02:50:10;;;;;;;4.57;1.23;;;;;;;-144.19;100.00;77827.38;5096684;28;19924;-88
2022/01/06 02:52:37;;;;;;;10.13;1.90;;;;;;;-144.19;100.00;77835.25;5077844;28;20056;-87
2022/01/06 02:55:07;;;;;;;10.30;1.45;;;;;;;-144.19;100.00;77851.03;5078610;28;20048;-87
2022/01/06 02:57:35;;;;;;;10.13;2.25;;;;;;;-144.19;100.00;77854.97;5078939;28;20048;-88
2022/01/06 03:00:02;;;;;;;8.70;1.25;;;;;;;-144.19;100.00;77860.88;5077821;28;20067;-86
2022/01/06 03:02:28;;;;;;;11.65;1.80;;;;;;;-144.19;100.00;77894.34;5077470;28;20051;-85
2022/01/06 03:04:55;;;;;;;9.43;1.70;;;;;;;-144.19;100.00;77917.97;5078355;28;20048;-86
2022/01/06 03:07:21;;;;;;;7.97;1.67;;;;;;;-144.19;100.00;77916.00;5078106;28;20044;-87
2022/01/06 03:09:54;;;;;;;8.10;1.50;;;;;;;-144.19;100.00;77914.03;5077829;28;20051;-88
2022/01/06 03:12:33;;;;;;;10.93;1.55;;;;;;;-144.19;100.00;77927.81;5077823;28;20309;-88
2022/01/06 03:15:01;;;;;;;6.88;1.80;;;;;;;-144.19;100.00;77929.78;5057980;28;20058;-88
2022/01/06 03:17:27;;;;;;;;;;;;;;;-144.19;100.00;77953.41;5058323;28;20053;-86
2022/01/06 03:19:53;;;;;;;7.47;1.52;;;;;;;-144.19;100.00;77947.50;5075605;28;19920;-85
2022/01/06 03:22:20;;;;;;;12.07;2.70;;;;;;;-144.19;100.00;77949.47;5075945;28;20048;-86
2022/01/06 03:24:46;;;;;;;15.30;2.25;;;;;;;-144.19;100.00;77965.22;5059054;28;20060;-87
2022/01/06 03:27:13;;;;;;;7.60;1.93;;;;;;;-144.19;100.00;77973.09;5066747;28;20044;-89
2022/01/06 03:29:39;;;;;;;12.05;2.63;;;;;;;-144.19;100.00;77986.88;5078843;28;20048;-85
2022/01/06 03:32:06;;;;;;;8.13;2.40;;;;;;;-144.19;100.00;77988.84;5096479;28;20052;-85
2022/01/06 03:34:32;;;;;;;8.00;1.63;;;;;;;-144.19;100.00;78026.28;5079071;28;20044;-86
2022/01/06 03:37:01;;;;;;;;;;;;;;;-144.19;100.00;78038.09;5079040;28;20374;-84
2022/01/06 03:39:29;;;;;;;7.43;1.92;;;;;;;-144.19;100.00;78040.06;5078746;28;19924;-84
2022/01/06 03:41:55;;;;;;;8.32;2.58;;;;;;;-144.19;100.00;78044.00;5077811;28;20044;-85
2022/01/06 03:44:22;;;;;;;18.23;5.97;;;;;;;-144.19;100.00;77984.91;5078177;28;20052;-86
2022/01/06 03:46:48;;;;;;;12.95;4.10;;;;;;;-144.19;100.00;78008.53;5077497;28;20056;-85
2022/01/06 03:49:15;;;;;;;10.77;3.67;;;;;;;-144.19;100.00;78036.13;5077440;28;20058;-86
2022/01/06 03:51:41;;;;;;;26.27;7.37;;;;;;;-144.19;100.00;78036.13;5077549;28;20667;-87
2022/01/06 03:54:07;;;;;;;17.67;6.40;;;;;;;-144.19;100.00;78024.31;5095834;28;20499;-88
2022/01/06 03:56:34;;;;;;;19.35;6.45;;;;;;;-144.19;100.00;78020.34;5077229;28;20044;-87
2022/01/06 03:59:01;;;;;;;12.87;4.37;;;;;;;-144.19;100.00;78036.13;5077036;28;20052;-85
2022/01/06 04:01:27;;;;;;;17.17;6.40;;;;;;;-144.19;100.00;78051.88;5096242;28;20059;-86
2022/01/06 04:03:54;;;;;;;13.43;4.13;;;;;;;-144.19;100.00;78044.00;5078264;28;20055;-88
2022/01/06 04:06:20;;;;;;;19.58;6.32;;;;;;;-144.19;100.00;78051.88;5078235;28;20044;-85
2022/01/06 04:08:47;;;;;;;17.30;5.13;;;;;;;-144.19;100.00;78040.06;5077650;28;20048;-86
2022/01/06 04:11:14;;;;;;;14.48;5.30;;;;;;;-144.19;100.00;78065.66;5095290;28;20044;-87
2022/01/06 04:13:40;;;;;;;13.10;2.85;;;;;;;-144.19;100.00;78065.66;5078140;28;20414;-86
2022/01/06 04:16:09;;;;;;;19.27;5.17;;;;;;;-144.19;100.00;78040.06;5095745;28;20050;-87
2022/01/06 04:18:36;;;;;;;26.30;7.90;;;;;;;-144.19;100.00;78038.09;5077883;28;20048;-86
2022/01/06 04:21:04;;;;;;;25.35;8.82;;;;;;;-144.19;100.00;78028.22;5078082;28;20044;-86
2022/01/06 04:23:30;;;;;;;21.85;9.15;;;;;;;-144.19;100.00;78016.41;5077687;28;20048;-86
2022/01/06 04:25:56;;;;;;;22.90;8.15;;;;;;;-144.19;100.00;78026.28;5077083;28;20054;-87
2022/01/06 04:28:23;;;;;;;23.38;8.63;;;;;;;-144.19;100.00;78040.06;5077425;28;20052;-85
2022/01/06 04:30:49;;;;;;;15.70;5.13;;;;;;;-144.19;100.00;78045.97;5078075;28;20051;-87
2022/01/06 04:33:16;;;;;;;15.07;5.28;;;;;;;-144.19;100.00;78063.69;5078358;28;20048;-88
2022/01/06 04:35:42;;;;;;;12.30;3.28;;;;;;;-144.19;100.00;78075.50;5078075;28;20056;-85
2022/01/06 04:38:09;;;;;;;14.60;3.00;;;;;;;-144.19;100.00;78079.44;5096341;28;20056;-86
2022/01/06 04:40:36;;;;;;;17.10;2.95;;;;;;;-144.19;100.00;78061.72;5077365;28;20513;-86
2022/01/06 04:43:02;;;;;;;11.90;2.83;;;;;;;-144.19;100.00;78081.41;5077231;28;20052;-86
2022/01/06 04:45:29;;;;;;;14.43;2.97;;;;;;;-144.19;100.00;78067.63;5094824;28;20066;-87
2022/01/06 04:47:55;;;;;;;12.43;2.38;;;;;;;-144.19;100.00;78085.34;5077661;28;20051;-87
2022/01/06 04:50:21;;;;;;;16.87;3.00;;;;;;;-144.19;100.00;78075.50;5077358;28;20048;-86
2022/01/06 04:52:48;;;;;;;16.73;3.23;;;;;;;-144.19;100.00;78083.38;5077579;28;20305;-85
2022/01/06 04:55:14;;;;;;;15.82;2.97;;;;;;;-144.19;100.00;78093.22;5076587;28;20283;-86
2022/01/06 04:57:41;;;;;;;21.98;3.08;;;;;;;-144.19;100.00;78081.41;5076691;28;20077;-87
2022/01/06 05:00:08;;;;;;;21.65;3.50;;;;;;;-144.19;100.00;78071.56;5077476;28;20048;-87
2022/01/06 05:02:34;;;;;;;;;;;;;;;-144.19;100.00;78089.28;5076418;28;20480;-86
2022/01/06 05:05:02;;;;;;;14.70;4.13;;;;;;;-144.19;100.00;78085.34;5075864;28;20015;-85
2022/01/06 05:07:28;;;;;;;24.95;4.10;;;;;;;-144.19;100.00;78077.47;5075655;28;20052;-86
2022/01/06 05:09:54;;;;;;;17.02;3.88;;;;;;;-144.19;100.00;78085.34;5075176;28;20044;-85
2022/01/06 05:12:22;;;;;;;14.63;3.00;;;;;;;-144.19;100.00;78108.97;5075583;28;20040;-87
2022/01/06 05:14:48;;;;;;;;;;;;;;;-144.19;100.00;78107.00;5076310;28;20292;-86
2022/01/06 05:17:16;;;;;;;16.55;5.10;;;;;;;-144.19;100.00;78110.94;5094667;28;20352;-86
2022/01/06 05:19:43;;;;;;;19.45;5.45;;;;;;;-144.19;100.00;78103.06;5075791;28;20048;-85
2022/01/06 05:22:09;;;;;;;12.13;4.80;;;;;;;-144.19;100.00;78114.88;5076059;28;20063;-86
2022/01/06 05:24:37;;;;;;;25.45;8.27;;;;;;;-144.19;100.00;78114.88;5094658;28;20056;-86
2022/01/06 05:27:09;;;;;;;22.00;7.32;;;;;;;-144.19;100.00;78124.72;5076262;28;20091;-87
2022/01/06 05:29:36;;;;;;;20.15;5.70;;;;;;;-144.19;100.00;78140.47;5076545;28;20604;-86
2022/01/06 05:32:03;;;;;;;19.35;4.53;;;;;;;-144.19;100.00;78148.34;5076867;28;20044;-85
2022/01/06 05:34:29;;;;;;;15.35;3.35;;;;;;;-144.19;100.00;78152.28;5075309;28;20465;-88
2022/01/06 05:36:56;;;;;;;15.13;3.10;;;;;;;-144.19;100.00;78150.31;5075720;28;20060;-87
2022/01/06 05:39:22;;;;;;;12.73;3.05;;;;;;;-144.19;100.00;78164.09;5093528;28;20067;-87
2022/01/06 05:41:48;;;;;;;11.52;3.50;;;;;;;-144.19;100.00;78164.09;5075828;28;20048;-86
2022/01/06 05:44:15;;;;;;;18.37;3.70;;;;;;;-144.19;100.00;78162.13;5075311;28;20054;-88
2022/01/06 05:46:41;;;;;;;15.95;3.08;;;;;;;-144.19;100.00;78154.25;5093472;28;20290;-83
2022/01/06 05:49:08;;;;;;;10.52;3.33;;;;;;;-144.19;100.00;78171.97;5075503;28;20048;-87
2022/01/06 05:51:34;;;;;;;15.88;4.93;;;;;;;-144.19;100.00;78181.84;5075086;28;20048;-85
2022/01/06 05:54:01;;;;;;;19.70;7.03;;;;;;;-144.19;100.00;78173.94;5092583;28;20075;-87
2022/01/06 05:56:28;;;;;;;16.27;4.00;;;;;;;-144.19;100.00;78140.47;5074310;28;20058;-88
2022/01/06 05:58:55;;;;;;;20.85;6.97;;;;;;;-144.19;100.00;78154.25;5092626;28;20290;-86
2022/01/06 06:01:21;;;;;;;21.97;5.70;;;;;;;-144.19;100.00;78166.06;5074568;28;20048;-86
2022/01/06 06:03:49;;;;;;;;;;;;;;;-144.19;100.00;78173.94;5075018;28;20290;-86
2022/01/06 06:06:16;;;;;;;15.95;4.25;;;;;;;-144.19;100.00;78162.13;5091747;28;20484;-88
2022/01/06 06:08:42;;;;;;;;;;;;;;;-144.19;100.00;78185.78;5074677;28;20126;-89
2022/01/06 06:11:09;;;;;;;17.08;4.32;;;;;;;-144.19;100.00;78187.75;5073646;28;19920;-86
2022/01/06 06:13:35;;;;;;;16.52;4.25;;;;;;;-144.19;100.00;78193.66;5074091;28;20052;-86
2022/01/06 06:16:02;;;;;;;22.85;5.47;;;;;;;-144.19;100.00;78207.44;5073937;28;20062;-85
2022/01/06 06:18:28;;;;;;;13.80;6.07;;;;;;;-144.19;100.00;78201.53;5074278;28;20055;-85
2022/01/06 06:20:55;;;;;;;16.67;5.43;;;;;;;-144.19;100.00;78211.38;5074430;28;20052;-86
2022/01/06 06:23:21;;;;;;;16.77;5.03;;;;;;;-144.19;100.00;78219.25;5077589;28;20048;-86
2022/01/06 06:25:47;;;;;;;19.20;6.57;;;;;;;-144.19;100.00;78197.59;5095994;28;20048;-87
2022/01/06 06:28:14;;;;;;;22.92;6.50;;;;;;;-144.19;100.00;78199.56;5078062;28;20048;-87
2022/01/06 06:30:40;;;;;;;24.20;7.75;;;;;;;-144.19;100.00;78205.47;5095522;28;20514;-85
2022/01/06 06:33:07;;;;;;;36.42;9.40;;;;;;;-144.19;100.00;78197.59;5077389;28;20048;-85
2022/01/06 06:35:33;;;;;;;28.58;8.63;;;;;;;-144.19;100.00;78209.41;5095541;28;20090;-84
2022/01/06 06:38:00;;;;;;;25.63;6.97;;;;;;;-144.19;100.00;78217.28;5077694;28;20048;-85
2022/01/06 06:40:26;;;;;;;25.30;8.48;;;;;;;-144.19;100.00;78221.22;5077098;28;20055;-86
2022/01/06 06:42:53;;;;;;;22.23;8.40;;;;;;;-144.19;100.00;78250.75;5095436;28;20044;-87
2022/01/06 06:45:21;;;;;;;16.25;4.78;;;;;;;-144.19;100.00;78262.56;5078255;28;20493;-85
2022/01/06 06:47:48;;;;;;;9.25;2.83;;;;;;;-144.19;100.00;78288.16;5077620;28;20048;-84
2022/01/06 06:50:16;;;;;;;11.40;3.20;;;;;;;-144.19;100.00;78280.28;5077581;28;20474;-87
2022/01/06 06:52:43;;;;;;;14.35;3.00;;;;;;;-144.19;100.00;78307.88;5076831;28;20313;-86
2022/01/06 06:55:13;;;;;;;;;;;;;;;-144.19;100.00;78315.75;5095074;28;20055;-85
2022/01/06 06:57:40;;;;;;;16.00;3.20;;;;;;;-144.19;100.00;78315.75;5078151;28;19926;-85
2022/01/06 07:00:09;;;;;;;15.05;3.80;;;;;;;-144.19;100.00;78319.69;5078000;28;20498;-87
2022/01/06 07:02:35;;;;;;;10.18;3.03;;;;;;;-144.19;100.00;78319.69;5077714;28;20482;-85
2022/01/06 07:05:02;;;;;;;13.27;3.47;;;;;;;-144.19;100.00;78341.34;5077428;28;20505;-84
2022/01/06 07:07:29;;;;;;;9.32;2.90;;;;;;;-144.19;100.00;78351.19;5078291;28;20131;-86
2022/01/06 07:09:55;;;;;;;14.00;3.95;;;;;;;-144.19;100.00;78347.25;5095857;28;20052;-85
2022/01/06 07:12:22;;;;;;;14.77;3.70;;;;;;;-144.19;100.00;78347.25;5095787;28;20051;-85
2022/01/06 07:14:49;;;;;;;25.42;8.20;;;;;;;-144.19;100.00;78309.84;5078174;28;20143;-84
2022/01/06 07:17:15;;;;;;;29.65;9.43;;;;;;;-144.19;100.00;78296.03;5077713;28;20052;-87
2022/01/06 07:19:41;;;;;;;26.67;8.80;;;;;;;-144.19;100.00;78309.84;5078406;28;20055;-87
2022/01/06 07:22:08;;;;;;;32.45;9.77;;;;;;;-144.19;100.00;78284.22;5078033;28;20518;-86
2022/01/06 07:24:36;;;;;;;26.17;10.95;;;;;;;-144.19;100.00;78284.22;5096109;28;20071;-86
2022/01/06 07:27:04;;;;;;;28.00;8.93;;;;;;;-144.19;100.00;78274.38;5095984;28;20048;-85
2022/01/06 07:29:30;;;;;;;19.33;7.22;;;;;;;-144.19;100.00;78286.19;5077696;28;20070;-87
2022/01/06 07:31:56;;;;;;;17.40;6.60;;;;;;;-144.19;100.00;78296.03;5077304;28;20612;-87
2022/01/06 07:34:23;;;;;;;18.80;5.93;;;;;;;-144.19;100.00;78307.88;5077376;28;20081;-84
2022/01/06 07:36:49;;;;;;;19.05;7.07;;;;;;;-144.19;100.00;78303.94;5096023;28;20048;-87
2022/01/06 07:39:16;;;;;;;17.17;5.75;;;;;;;-144.19;100.00;78298.00;5096407;28;20052;-85
2022/01/06 07:41:42;;;;;;;14.52;4.85;;;;;;;-144.19;100.00;78335.44;5095910;28;20044;-85
2022/01/06 07:44:09;;;;;;;16.92;5.13;;;;;;;-144.19;100.00;78335.44;5076955;28;20052;-86
2022/01/06 07:46:37;;;;;;;20.67;4.75;;;;;;;-144.19;100.00;78351.19;5078035;28;20051;-84
2022/01/06 07:49:04;;;;;;;13.55;4.22;;;;;;;-144.19;100.00;78347.25;5077403;28;20052;-88
2022/01/06 07:51:31;;;;;;;11.35;4.55;;;;;;;-144.19;100.00;78335.44;5077564;28;20498;-84
2022/01/06 07:53:59;;;;;;;13.50;5.35;;;;;;;-144.19;100.00;78357.09;5096014;28;20410;-85
2022/01/06 07:56:26;;;;;;;34.33;23.27;;;;;;;-144.19;100.00;78337.41;5077040;28;20059;-84
2022/01/06 07:58:53;;;;;;;;;;;;;;;-144.19;100.00;78351.19;5077697;28;20047;-87
2022/01/06 08:01:19;;;;;;;15.70;9.93;;;;;;;-144.19;100.00;78363.00;5076575;28;19920;-84
2022/01/06 08:03:46;;;;;;;11.48;5.82;;;;;;;-144.19;100.00;78390.56;5093682;28;20054;-86
2022/01/06 08:06:14;;;;;;;14.38;4.53;;;;;;;-144.19;100.00;78355.13;5076085;28;20048;-87
2022/01/06 08:08:42;;;;;;;11.15;4.38;;;;;;;-144.19;100.00;78372.84;5076225;28;20056;-86
2022/01/06 08:11:09;;;;;;;15.68;5.03;;;;;;;-144.19;100.00;78343.31;5077620;28;20059;-86
2022/01/06 08:13:36;;;;;;;9.35;3.72;;;;;;;-144.19;100.00;78351.19;5077852;28;20050;-88
2022/01/06 08:16:02;;;;;;;10.93;3.92;;;;;;;-144.19;100.00;78355.13;5078277;28;20130;-87
2022/01/06 08:18:29;;;;;;;11.63;4.30;;;;;;;-144.19;100.00;78364.97;5078948;28;20048;-88
2022/01/06 08:20:55;;;;;;;10.20;3.90;;;;;;;-144.19;100.00;78366.94;5077814;28;20521;-86
2022/01/06 08:23:22;;;;;;;10.82;4.80;;;;;;;-144.19;100.00;78374.81;5077764;28;20282;-84
2022/01/06 08:25:49;;;;;;;10.85;3.65;;;;;;;-144.19;100.00;78386.63;5096389;28;20417;-85
2022/01/06 08:28:15;;;;;;;15.20;4.30;;;;;;;-144.19;100.00;78396.47;5079080;28;20058;-86
2022/01/06 08:30:42;;;;;;;17.00;4.53;;;;;;;-144.19;100.00;78380.72;5075775;28;20043;-85
2022/01/06 08:33:08;;;;;;;10.15;5.45;;;;;;;-144.19;100.00;78372.84;5075414;28;20814;-86
2022/01/06 08:35:35;;;;;;;12.77;5.80;;;;;;;-144.19;100.00;78376.78;5075697;28;20052;-87
2022/01/06 08:38:01;;;;;;;10.10;3.47;;;;;;;-144.19;100.00;78378.75;5076734;28;20058;-86
2022/01/06 08:40:28;;;;;;;14.40;3.80;;;;;;;-144.19;100.00;78372.84;5089880;28;20051;-86
2022/01/06 08:42:55;;;;;;;11.85;3.58;;;;;;;-144.19;100.00;78355.13;5111086;28;20413;-89
2022/01/06 08:45:21;;;;;;;10.00;3.80;;;;;;;-144.19;100.00;78355.13;5076989;28;20060;-87
2022/01/06 08:47:48;;;;;;;6.90;3.00;;;;;;;-144.19;100.00;78343.31;5078320;28;20055;-87
2022/01/06 08:50:16;;;;;;;12.70;4.00;;;;;;;-144.19;100.00;78353.16;5078416;28;20058;-86
2022/01/06 08:52:42;;;;;;;18.25;7.75;;;;;;;-144.19;100.00;78351.19;5077602;28;20051;-87
2022/01/06 08:55:10;;;;;;;19.80;7.60;;;;;;;-144.19;100.00;78359.06;5077796;28;20112;-86
2022/01/06 08:57:37;;;;;;;19.65;7.93;;;;;;;-144.19;100.00;78363.00;5077799;28;20563;-86
2022/01/06 09:00:07;;;;;;;19.88;6.50;;;;;;;-144.19;100.00;78359.06;5077501;28;20044;-86
2022/01/06 09:02:34;;;;;;;15.70;6.53;;;;;;;-144.19;100.00;78343.31;5077416;28;20048;-86
2022/01/06 09:05:02;;;;;;;12.10;5.28;;;;;;;-144.19;100.00;78347.25;5078478;28;20044;-85
2022/01/06 09:07:29;;;;;;;15.43;4.22;;;;;;;-144.19;100.00;78359.06;5095885;28;20048;-86
2022/01/06 09:09:55;;;;;;;11.05;5.10;;;;;;;-144.19;100.00;78370.88;5096562;28;20052;-84
2022/01/06 09:12:21;;;;;;;7.43;4.05;;;;;;;-144.19;100.00;78366.94;5078683;28;20058;-87
2022/01/06 09:14:48;;;;;;;15.27;4.43;;;;;;;-144.19;100.00;78363.00;5080048;28;20048;-86
2022/01/06 09:17:15;;;;;;;13.65;3.50;;;;;;;-144.19;100.00;78351.19;5098771;28;20048;-87
2022/01/06 09:19:42;;;;;;;11.15;4.45;;;;;;;-144.19;100.00;78357.09;5079754;28;20060;-85
2022/01/06 09:22:08;;;;;;;14.07;4.35;;;;;;;-144.19;100.00;78351.19;5078168;28;20040;-83
2022/01/06 09:24:36;;;;;;;18.20;7.60;;;;;;;-144.19;100.00;78359.06;5080350;28;20051;-88
2022/01/06 09:27:02;;;;;;;13.75;5.90;;;;;;;-144.19;100.00;78347.25;5097754;28;20294;-83
2022/01/06 09:29:29;;;;;;;12.02;4.57;;;;;;;-144.19;100.00;78359.06;5080846;28;20055;-84
2022/01/06 09:31:55;;;;;;;12.73;4.80;;;;;;;-144.19;100.00;78343.31;5079331;28;20078;-84
2022/01/06 09:34:22;;;;;;;13.02;5.50;;;;;;;-144.19;100.00;78347.25;5097860;28;20067;-85
2022/01/06 09:36:48;;;;;;;22.75;8.07;;;;;;;-144.19;100.00;78347.25;5079018;28;20060;-85
2022/01/06 09:39:15;;;;;;;15.88;7.22;;;;;;;-144.19;100.00;78333.47;5078670;28;20062;-87
2022/01/06 09:41:41;;;;;;;23.42;7.95;;;;;;;-144.19;100.00;78331.50;5078871;28;20066;-86
2022/01/06 09:44:08;;;;;;;15.20;6.88;;;;;;;-144.19;100.00;78341.34;5077971;28;20055;-88
2022/01/06 09:46:57;;;;;;;14.00;5.15;;;;;;;-144.19;100.00;78339.38;5097268;28;20055;-85
2022/01/06 09:49:24;;;;;;;13.77;4.45;;;;;;;-144.19;100.00;78311.81;5079625;28;20074;-86
2022/01/06 09:51:51;;;;;;;22.67;9.00;;;;;;;-144.19;100.00;78311.81;5079598;28;20076;-85
2022/01/06 09:54:19;;;;;;;16.85;6.65;;;;;;;-144.19;100.00;78288.16;5076487;28;20581;-87
2022/01/06 09:56:45;;;;;;;;;;;;;;;-144.19;100.00;78301.94;5075930;28;20048;-87
2022/01/06 09:59:11;;;;;;;16.05;5.28;;;;;;;-144.19;100.00;78288.16;5074927;28;20382;-86
2022/01/06 10:01:38;;;;;;;17.02;6.38;;;;;;;-144.19;100.00;78264.53;5092763;28;20494;-87
2022/01/06 10:04:05;;;;;;;19.20;5.63;;;;;;;-144.19;100.00;78274.38;5075201;28;20080;-87
2022/01/06 10:06:31;;;;;;;14.50;5.45;;;;;;;-144.19;100.00;78264.53;5093884;28;20549;-87
2022/01/06 10:09:02;;;;;;;13.52;5.60;;;;;;;-144.19;100.00;78244.84;5093144;28;20051;-87
2022/01/06 10:11:32;;;;;;;13.00;5.22;;;;;;;-144.19;100.00;78240.91;5076080;28;20066;-85
2022/01/06 10:14:10;;;;;;;19.52;8.57;;;;;;;-144.19;100.00;78233.03;5074756;28;20054;-85
2022/01/06 10:16:44;;;;;;;14.55;6.28;;;;;;;-144.19;100.00;78195.63;5094552;28;20055;-87
2022/01/06 10:19:12;;;;;;;23.08;7.07;;;;;;;-144.19;100.00;78187.75;5077947;28;20330;-88
2022/01/06 10:21:44;;;;;;;14.18;4.85;;;;;;;-144.19;100.00;78158.19;5079236;28;20048;-86
2022/01/06 10:24:13;;;;;;;19.98;6.25;;;;;;;-144.19;100.00;78132.59;5077105;28;20341;-86
2022/01/06 10:26:58;;;;;;;15.98;4.68;;;;;;;-144.19;100.00;78130.63;5079159;28;20048;-85
2022/01/06 10:29:29;;;;;;;17.95;5.63;;;;;;;-144.19;100.00;78120.78;5077972;28;20054;-86
2022/01/06 10:32:03;;;;;;;18.98;5.63;;;;;;;-144.19;100.00;78101.09;5075781;28;20048;-86
2022/01/06 10:34:34;;;;;;;12.90;4.28;;;;;;;-144.19;100.00;78095.19;5098947;28;20052;-86
2022/01/06 10:37:01;;;;;;;13.90;3.72;;;;;;;-144.19;100.00;78081.41;5081755;28;20512;-86
2022/01/06 10:39:42;;;;;;;24.70;7.25;;;;;;;-144.19;100.00;78093.22;5098863;28;20058;-89
2022/01/06 10:42:11;;;;;;;16.95;6.57;;;;;;;-144.19;100.00;78095.19;5082510;28;20052;-85
2022/01/06 10:44:47;;;;;;;17.65;7.75;;;;;;;-144.19;100.00;78099.13;5080874;28;20058;-86
2022/01/06 10:47:13;;;;;;;16.60;5.85;;;;;;;-144.19;100.00;78103.06;5077930;28;20047;-87
2022/01/06 10:49:40;;;;;;;19.45;8.57;;;;;;;-144.19;100.00;78097.16;5098520;28;20056;-85
2022/01/06 10:52:06;;;;;;;19.77;7.38;;;;;;;-144.19;100.00;78044.00;5081047;28;20052;-88
2022/01/06 10:54:36;;;;;;;19.63;6.80;;;;;;;-144.19;100.00;78012.47;5078052;28;20547;-88
2022/01/06 10:57:11;;;;;;;19.45;6.28;;;;;;;-144.19;100.00;77896.31;5101909;28;20304;-87
2022/01/06 10:59:38;;;;;;;21.38;6.70;;;;;;;-144.19;100.00;77843.13;5080090;28;20051;-86
2022/01/06 11:02:05;;;;;;;16.13;5.53;;;;;;;-144.19;100.00;77917.97;5080890;28;20098;-87
2022/01/06 11:04:32;;;;;;;;;;;;;;;-144.19;100.00;77837.22;5081104;28;20047;-88
2022/01/06 11:06:59;;;;;;;19.05;6.10;;;;;;;-144.19;100.00;77823.44;5079106;28;20380;-87
2022/01/06 11:09:26;;;;;;;17.60;5.90;;;;;;;-144.19;100.00;77815.56;5083670;28;20498;-86
2022/01/06 11:14:26;;;;;;;22.30;5.15;;;;;;;-144.19;100.00;77752.56;5099277;28;20048;-88
2022/01/06 11:16:53;;;;;;;;;;;;;;;-144.19;100.00;77746.66;5086543;28;20051;-88